createdAt,value
2023-02-27T00:00:51.946Z,486.00
2023-02-27T00:01:52.006Z,485.00
2023-02-27T00:02:52.059Z,485.00
2023-02-27T00:03:52.094Z,486.00
2023-02-27T00:04:52.161Z,487.00
2023-02-27T00:05:52.184Z,487.00
2023-02-27T00:06:51.213Z,484.00
2023-02-27T00:07:51.245Z,483.00
2023-02-27T00:08:52.402Z,485.00
2023-02-27T00:09:52.314Z,484.00
2023-02-27T00:10:51.410Z,484.00
2023-02-27T00:11:51.428Z,485.00
2023-02-27T00:12:52.435Z,485.00
2023-02-27T00:13:52.470Z,484.00
2023-02-27T00:14:52.508Z,482.00
2023-02-27T00:15:52.584Z,482.00
2023-02-27T00:16:52.762Z,485.00
2023-02-27T00:17:51.592Z,488.00
2023-02-27T00:18:52.628Z,489.00
2023-02-27T00:19:52.664Z,489.00
2023-02-27T00:20:51.723Z,488.00
2023-02-27T00:21:52.740Z,486.00
2023-02-27T00:22:51.807Z,486.00
2023-02-27T00:23:52.834Z,486.00
2023-02-27T00:24:52.839Z,487.00
2023-02-27T00:25:52.923Z,487.00
2023-02-27T00:26:52.955Z,487.00
2023-02-27T00:27:52.973Z,487.00
2023-02-27T00:28:52.029Z,486.00
2023-02-27T00:29:53.061Z,485.00
2023-02-27T00:30:53.103Z,488.00
2023-02-27T00:31:53.206Z,487.00
2023-02-27T00:32:53.112Z,485.00
2023-02-27T00:33:53.240Z,484.00
2023-02-27T00:34:53.250Z,486.00
2023-02-27T00:35:53.302Z,483.00
2023-02-27T00:36:53.285Z,481.00
2023-02-27T00:37:52.318Z,481.00
2023-02-27T00:38:53.380Z,481.00
2023-02-27T00:39:53.384Z,480.00
2023-02-27T00:40:53.476Z,480.00
2023-02-27T00:41:53.442Z,480.00
2023-02-27T00:42:53.494Z,480.00
2023-02-27T00:43:53.549Z,481.00
2023-02-27T00:44:53.568Z,481.00
2023-02-27T00:45:53.586Z,479.00
2023-02-27T00:46:52.679Z,478.00
2023-02-27T00:47:52.657Z,477.00
2023-02-27T00:48:53.713Z,479.00
2023-02-27T00:49:53.713Z,479.00
2023-02-27T00:50:53.824Z,474.00
2023-02-27T00:51:53.787Z,473.00
2023-02-27T00:52:53.816Z,472.00
2023-02-27T00:53:53.879Z,474.00
2023-02-27T00:54:53.888Z,476.00
2023-02-27T00:55:53.907Z,477.00
2023-02-27T00:56:54.006Z,479.00
2023-02-27T00:57:54.037Z,474.00
2023-02-27T00:58:53.022Z,475.00
2023-02-27T00:59:53.072Z,473.00
2023-02-27T01:00:54.134Z,471.00
2023-02-27T01:01:53.144Z,475.00
2023-02-27T01:02:53.257Z,477.00
2023-02-27T01:03:54.215Z,478.00
2023-02-27T01:04:53.269Z,479.00
2023-02-27T01:05:53.358Z,477.00
2023-02-27T01:06:54.347Z,479.00
2023-02-27T01:07:54.384Z,478.00
2023-02-27T01:08:54.426Z,479.00
2023-02-27T01:09:54.473Z,476.00
2023-02-27T01:10:54.521Z,476.00
2023-02-27T01:11:54.510Z,479.00
2023-02-27T01:12:53.558Z,478.00
2023-02-27T01:13:54.582Z,480.00
2023-02-27T01:14:53.644Z,478.00
2023-02-27T01:15:53.674Z,477.00
2023-02-27T01:16:54.715Z,477.00
2023-02-27T01:17:54.749Z,478.00
2023-02-27T01:18:54.791Z,478.00
2023-02-27T01:19:54.906Z,476.00
2023-02-27T01:20:54.881Z,475.00
2023-02-27T01:21:54.905Z,475.00
2023-02-27T01:22:54.971Z,475.00
2023-02-27T01:23:55.007Z,473.00
2023-02-27T01:24:55.067Z,470.00
2023-02-27T01:25:55.081Z,468.00
2023-02-27T01:26:55.151Z,471.00
2023-02-27T01:27:54.183Z,474.00
2023-02-27T01:28:55.216Z,475.00
2023-02-27T01:29:55.253Z,478.00
2023-02-27T01:30:55.379Z,477.00
2023-02-27T01:31:55.414Z,478.00
2023-02-27T01:32:55.422Z,478.00
2023-02-27T01:33:55.484Z,480.00
2023-02-27T01:34:55.461Z,483.00
2023-02-27T01:35:55.512Z,482.00
2023-02-27T01:36:55.558Z,482.00
2023-02-27T01:37:54.570Z,483.00
2023-02-27T01:38:54.611Z,484.00
2023-02-27T01:39:55.659Z,485.00
2023-02-27T01:40:54.701Z,486.00
2023-02-27T01:41:55.840Z,487.00
2023-02-27T01:42:55.827Z,489.00
2023-02-27T01:43:55.871Z,487.00
2023-02-27T01:44:55.860Z,486.00
2023-02-27T01:45:55.939Z,487.00
2023-02-27T01:46:55.965Z,486.00
2023-02-27T01:47:56.039Z,484.00
2023-02-27T01:48:56.022Z,483.00
2023-02-27T01:49:56.052Z,483.00
2023-02-27T01:52:14.251Z,475.00
2023-02-27T01:53:15.287Z,475.00
2023-02-27T01:54:15.241Z,476.00
2023-02-27T01:55:15.225Z,478.00
2023-02-27T01:56:15.208Z,481.00
2023-02-27T01:57:15.266Z,482.00
2023-02-27T01:58:15.228Z,481.00
2023-02-27T01:59:15.192Z,483.00
2023-02-27T02:00:15.187Z,484.00
2023-02-27T02:01:14.212Z,484.00
2023-02-27T02:02:15.220Z,484.00
2023-02-27T02:03:15.205Z,482.00
2023-02-27T02:04:15.264Z,481.00
2023-02-27T02:05:15.323Z,483.00
2023-02-27T02:06:15.365Z,484.00
2023-02-27T02:07:15.374Z,484.00
2023-02-27T02:08:15.426Z,482.00
2023-02-27T02:09:14.471Z,481.00
2023-02-27T02:10:14.514Z,482.00
2023-02-27T02:11:15.569Z,483.00
2023-02-27T02:12:15.643Z,482.00
2023-02-27T02:13:15.662Z,481.00
2023-02-27T02:14:15.764Z,480.00
2023-02-27T02:15:15.770Z,481.00
2023-02-27T02:16:15.808Z,480.00
2023-02-27T02:17:15.890Z,481.00
2023-02-27T02:18:15.952Z,479.00
2023-02-27T02:19:14.951Z,478.00
2023-02-27T02:20:16.013Z,479.00
2023-02-27T02:21:16.058Z,480.00
2023-02-27T02:22:16.092Z,480.00
2023-02-27T02:23:15.134Z,481.00
2023-02-27T02:24:16.216Z,483.00
2023-02-27T02:25:16.243Z,487.00
2023-02-27T02:26:16.268Z,487.00
2023-02-27T02:27:16.310Z,485.00
2023-02-27T02:28:16.356Z,484.00
2023-02-27T02:29:15.410Z,483.00
2023-02-27T02:30:16.460Z,480.00
2023-02-27T02:31:16.627Z,480.00
2023-02-27T02:32:16.579Z,482.00
2023-02-27T02:33:16.584Z,483.00
2023-02-27T02:34:16.641Z,485.00
2023-02-27T02:35:15.692Z,486.00
2023-02-27T02:36:15.744Z,485.00
2023-02-27T02:37:16.808Z,487.00
2023-02-27T02:38:16.831Z,482.00
2023-02-27T02:39:15.884Z,481.00
2023-02-27T02:40:16.974Z,480.00
2023-02-27T02:41:17.004Z,481.00
2023-02-27T02:42:16.073Z,480.00
2023-02-27T02:43:17.109Z,480.00
2023-02-27T02:44:17.166Z,479.00
2023-02-27T02:45:17.179Z,478.00
2023-02-27T02:46:17.326Z,478.00
2023-02-27T02:47:17.262Z,479.00
2023-02-27T02:48:17.322Z,479.00
2023-02-27T02:49:17.419Z,479.00
2023-02-27T02:51:35.619Z,465.00
2023-02-27T02:52:36.603Z,466.00
2023-02-27T02:53:37.588Z,466.00
2023-02-27T02:54:36.556Z,466.00
2023-02-27T02:55:35.543Z,465.00
2023-02-27T02:56:35.546Z,468.00
2023-02-27T02:57:35.618Z,471.00
2023-02-27T02:58:49.590Z,473.00
2023-02-27T02:59:35.579Z,473.00
2023-02-27T03:00:36.578Z,473.00
2023-02-27T03:01:35.595Z,476.00
2023-02-27T03:02:36.530Z,478.00
2023-02-27T03:03:36.506Z,481.00
2023-02-27T03:04:36.577Z,480.00
2023-02-27T03:05:36.514Z,481.00
2023-02-27T03:06:36.489Z,482.00
2023-02-27T03:07:36.541Z,484.00
2023-02-27T03:08:36.518Z,484.00
2023-02-27T03:10:54.682Z,483.00
2023-02-27T03:11:54.667Z,483.00
2023-02-27T03:12:55.669Z,486.00
2023-02-27T03:13:55.674Z,487.00
2023-02-27T03:14:55.652Z,488.00
2023-02-27T03:15:55.724Z,489.00
2023-02-27T03:16:54.654Z,487.00
2023-02-27T03:17:54.615Z,488.00
2023-02-27T03:18:55.617Z,487.00
2023-02-27T03:19:55.641Z,487.00
2023-02-27T03:20:55.675Z,485.00
2023-02-27T03:21:55.587Z,484.00
2023-02-27T03:22:55.588Z,484.00
2023-02-27T03:23:54.576Z,484.00
2023-02-27T03:24:55.587Z,481.00
2023-02-27T03:25:57.891Z,484.00
2023-02-27T03:26:54.643Z,484.00
2023-02-27T03:27:55.639Z,485.00
2023-02-27T03:28:54.637Z,485.00
2023-02-27T03:29:55.628Z,483.00
2023-02-27T03:30:55.720Z,484.00
2023-02-27T03:31:55.704Z,484.00
2023-02-27T03:32:54.627Z,481.00
2023-02-27T03:33:55.579Z,481.00
2023-02-27T03:34:55.584Z,482.00
2023-02-27T03:35:55.596Z,479.00
2023-02-27T03:36:55.579Z,478.00
2023-02-27T03:37:54.546Z,478.00
2023-02-27T03:38:55.538Z,478.00
2023-02-27T03:39:55.617Z,480.00
2023-02-27T03:40:54.538Z,482.00
2023-02-27T03:41:55.526Z,485.00
2023-02-27T03:42:55.514Z,485.00
2023-02-27T03:43:55.508Z,484.00
2023-02-27T03:44:55.502Z,482.00
2023-02-27T03:45:55.488Z,483.00
2023-02-27T03:46:55.478Z,484.00
2023-02-27T03:47:54.491Z,483.00
2023-02-27T03:48:55.488Z,481.00
2023-02-27T03:49:54.482Z,482.00
2023-02-27T03:50:55.471Z,484.00
2023-02-27T03:51:55.450Z,485.00
2023-02-27T03:52:55.435Z,482.00
2023-02-27T03:53:54.447Z,478.00
2023-02-27T03:54:55.532Z,477.00
2023-02-27T03:55:55.579Z,478.00
2023-02-27T03:56:55.640Z,481.00
2023-02-27T03:57:54.651Z,483.00
2023-02-27T03:58:55.743Z,485.00
2023-02-27T03:59:54.747Z,484.00
2023-02-27T04:00:55.818Z,484.00
2023-02-27T04:01:55.932Z,482.00
2023-02-27T04:02:55.991Z,482.00
2023-02-27T04:03:55.960Z,478.00
2023-02-27T04:04:56.044Z,476.00
2023-02-27T04:05:55.167Z,478.00
2023-02-27T04:06:55.131Z,476.00
2023-02-27T04:07:55.196Z,477.00
2023-02-27T04:08:56.237Z,477.00
2023-02-27T04:09:56.292Z,479.00
2023-02-27T04:10:56.389Z,479.00
2023-02-27T04:11:56.390Z,481.00
2023-02-27T04:12:56.425Z,482.00
2023-02-27T04:13:56.499Z,484.00
2023-02-27T04:14:56.531Z,483.00
2023-02-27T04:15:56.678Z,484.00
2023-02-27T04:16:56.675Z,484.00
2023-02-27T04:17:56.672Z,482.00
2023-02-27T04:18:57.009Z,479.00
2023-02-27T04:19:56.803Z,477.00
2023-02-27T04:20:56.883Z,478.00
2023-02-27T04:21:55.903Z,474.00
2023-02-27T04:22:56.930Z,475.00
2023-02-27T04:23:55.981Z,474.00
2023-02-27T04:24:57.059Z,476.00
2023-02-27T04:25:57.162Z,477.00
2023-02-27T04:26:57.166Z,474.00
2023-02-27T04:27:57.224Z,473.00
2023-02-27T04:28:57.326Z,476.00
2023-02-27T04:29:57.323Z,478.00
2023-02-27T04:30:57.449Z,482.00
2023-02-27T04:31:57.636Z,482.00
2023-02-27T04:32:57.474Z,482.00
2023-02-27T04:33:57.524Z,483.00
2023-02-27T04:34:57.565Z,484.00
2023-02-27T04:35:57.650Z,487.00
2023-02-27T04:36:57.868Z,485.00
2023-02-27T04:37:57.703Z,485.00
2023-02-27T04:38:57.812Z,484.00
2023-02-27T04:39:58.389Z,485.00
2023-02-27T04:40:57.899Z,482.00
2023-02-27T04:41:57.918Z,483.00
2023-02-27T04:42:57.979Z,484.00
2023-02-27T04:43:57.043Z,483.00
2023-02-27T04:44:57.095Z,482.00
2023-02-27T04:45:57.220Z,484.00
2023-02-27T04:46:58.202Z,480.00
2023-02-27T04:47:58.267Z,479.00
2023-02-27T04:48:58.306Z,476.00
2023-02-27T04:49:58.347Z,477.00
2023-02-27T04:50:58.423Z,480.00
2023-02-27T04:51:58.491Z,481.00
2023-02-27T04:52:57.514Z,482.00
2023-02-27T04:53:58.555Z,482.00
2023-02-27T04:54:57.614Z,481.00
2023-02-27T04:55:58.696Z,482.00
2023-02-27T04:56:58.733Z,480.00
2023-02-27T04:57:58.785Z,479.00
2023-02-27T04:58:58.844Z,484.00
2023-02-27T04:59:58.876Z,486.00
2023-02-27T05:00:59.048Z,486.00
2023-02-27T05:01:58.199Z,487.00
2023-02-27T05:02:59.140Z,484.00
2023-02-27T05:04:00.380Z,484.00
2023-02-27T05:04:59.156Z,484.00
2023-02-27T05:05:58.259Z,483.00
2023-02-27T05:06:59.298Z,481.00
2023-02-27T05:07:59.345Z,477.00
2023-02-27T05:08:59.372Z,476.00
2023-02-27T05:09:58.427Z,477.00
2023-02-27T05:10:59.490Z,476.00
2023-02-27T05:11:59.520Z,476.00
2023-02-27T05:12:59.660Z,478.00
2023-02-27T05:13:59.630Z,477.00
2023-02-27T05:14:59.729Z,479.00
2023-02-27T05:15:59.949Z,475.00
2023-02-27T05:16:58.795Z,474.00
2023-02-27T05:17:59.933Z,472.00
2023-02-27T05:18:59.930Z,474.00
2023-02-27T05:19:59.937Z,473.00
2023-02-27T05:21:00.025Z,472.00
2023-02-27T05:22:00.122Z,472.00
2023-02-27T05:22:59.102Z,475.00
2023-02-27T05:24:00.266Z,473.00
2023-02-27T05:25:00.193Z,473.00
2023-02-27T05:25:59.281Z,476.00
2023-02-27T05:27:00.327Z,478.00
2023-02-27T05:27:59.380Z,477.00
2023-02-27T05:29:00.426Z,478.00
2023-02-27T05:30:00.500Z,479.00
2023-02-27T05:31:00.568Z,480.00
2023-02-27T05:32:00.671Z,481.00
2023-02-27T05:33:00.648Z,482.00
2023-02-27T05:33:59.680Z,481.00
2023-02-27T05:35:00.735Z,481.00
2023-02-27T05:35:59.821Z,479.00
2023-02-27T05:37:00.924Z,478.00
2023-02-27T05:38:00.923Z,480.00
2023-02-27T05:39:00.961Z,479.00
2023-02-27T05:40:01.039Z,477.00
2023-02-27T05:41:01.067Z,475.00
2023-02-27T05:42:00.146Z,475.00
2023-02-27T05:43:00.191Z,472.00
2023-02-27T05:44:01.285Z,472.00
2023-02-27T05:45:01.296Z,475.00
2023-02-27T05:46:01.383Z,476.00
2023-02-27T05:47:01.425Z,475.00
2023-02-27T05:48:01.503Z,478.00
2023-02-27T05:49:01.530Z,476.00
2023-02-27T05:50:01.597Z,475.00
2023-02-27T05:51:01.677Z,476.00
2023-02-27T05:52:01.828Z,474.00
2023-02-27T05:53:01.769Z,474.00
2023-02-27T05:54:01.833Z,473.00
2023-02-27T05:55:01.894Z,474.00
2023-02-27T05:56:01.975Z,473.00
2023-02-27T05:57:02.009Z,472.00
2023-02-27T05:58:02.048Z,471.00
2023-02-27T05:59:02.108Z,471.00
2023-02-27T06:00:02.165Z,473.00
2023-02-27T06:01:01.259Z,472.00
2023-02-27T06:02:02.325Z,471.00
2023-02-27T06:03:02.385Z,470.00
2023-02-27T06:04:02.389Z,469.00
2023-02-27T06:05:02.494Z,470.00
2023-02-27T06:06:02.507Z,469.00
2023-02-27T06:07:02.560Z,466.00
2023-02-27T06:08:01.633Z,467.00
2023-02-27T06:09:02.656Z,469.00
2023-02-27T06:11:02.692Z,471.00
2023-02-27T06:12:02.724Z,471.00
2023-02-27T06:13:02.689Z,472.00
2023-02-27T06:14:02.684Z,472.00
2023-02-27T06:15:01.692Z,473.00
2023-02-27T06:16:02.667Z,472.00
2023-02-27T06:17:01.721Z,474.00
2023-02-27T06:18:01.649Z,473.00
2023-02-27T06:19:04.909Z,474.00
2023-02-27T06:20:01.628Z,476.00
2023-02-27T06:21:01.643Z,474.00
2023-02-27T06:22:01.617Z,472.00
2023-02-27T06:23:02.627Z,474.00
2023-02-27T06:24:02.625Z,476.00
2023-02-27T06:25:02.594Z,475.00
2023-02-27T06:26:02.597Z,473.00
2023-02-27T06:27:02.597Z,472.00
2023-02-27T06:28:02.599Z,473.00
2023-02-27T06:29:02.581Z,476.00
2023-02-27T06:30:02.552Z,489.00
2023-02-27T06:31:02.576Z,493.00
2023-02-27T06:32:01.568Z,498.00
2023-02-27T06:33:02.528Z,511.00
2023-02-27T06:34:01.522Z,519.00
2023-02-27T06:35:02.526Z,528.00
2023-02-27T06:36:02.521Z,543.00
2023-02-27T06:37:04.262Z,547.00
2023-02-27T06:38:01.488Z,552.00
2023-02-27T06:39:01.483Z,561.00
2023-02-27T06:40:02.469Z,571.00
2023-02-27T06:41:01.461Z,588.00
2023-02-27T06:42:02.445Z,612.00
2023-02-27T06:43:02.463Z,626.00
2023-02-27T06:44:01.469Z,630.00
2023-02-27T06:45:02.433Z,640.00
2023-02-27T06:46:02.530Z,651.00
2023-02-27T06:47:02.528Z,665.00
2023-02-27T06:48:01.432Z,700.00
2023-02-27T06:49:02.409Z,727.00
2023-02-27T06:50:01.414Z,770.00
2023-02-27T06:51:02.396Z,784.00
2023-02-27T06:52:02.379Z,799.00
2023-02-27T06:53:01.384Z,809.00
2023-02-27T06:54:01.372Z,818.00
2023-02-27T06:55:02.408Z,824.00
2023-02-27T06:56:02.369Z,856.00
2023-02-27T06:57:01.369Z,932.00
2023-02-27T06:58:02.347Z,934.00
2023-02-27T06:59:02.326Z,949.00
2023-02-27T07:00:02.354Z,1059.00
2023-02-27T07:01:02.370Z,1059.00
2023-02-27T07:02:02.305Z,1058.00
2023-02-27T07:03:02.437Z,1069.00
2023-02-27T07:04:02.300Z,1086.00
2023-02-27T07:05:07.888Z,1323.00
2023-02-27T07:06:02.278Z,857.00
2023-02-27T07:07:34.860Z,897.00
2023-02-27T07:08:02.262Z,826.00
2023-02-27T07:09:06.998Z,845.00
2023-02-27T07:10:02.270Z,864.00
2023-02-27T07:11:02.294Z,876.00
2023-02-27T07:12:01.222Z,925.00
2023-02-27T07:13:02.228Z,994.00
2023-02-27T07:14:02.206Z,1024.00
2023-02-27T07:18:02.182Z,1115.00
2023-02-27T07:19:02.180Z,1173.00
2023-02-27T07:20:02.168Z,1237.00
2023-02-27T07:21:02.161Z,1251.00
2023-02-27T07:22:02.160Z,1263.00
2023-02-27T07:30:02.100Z,1413.00
2023-02-27T07:31:02.268Z,1461.00
2023-02-27T07:32:02.140Z,1482.00
2023-02-27T07:33:02.080Z,1499.00
2023-02-27T07:34:02.058Z,1521.00
2023-02-27T07:35:01.066Z,1553.00
2023-02-27T07:36:02.089Z,1592.00
2023-02-27T07:37:01.046Z,1619.00
2023-02-27T07:38:02.069Z,1637.00
2023-02-27T07:39:02.021Z,1678.00
2023-02-27T07:40:02.028Z,1724.00
2023-02-27T07:41:01.017Z,1743.00
2023-02-27T07:42:01.997Z,1750.00
2023-02-27T07:44:02.045Z,1770.00
2023-02-27T07:45:01.983Z,1786.00
2023-02-27T07:46:02.038Z,1797.00
2023-02-27T07:47:02.011Z,1818.00
2023-02-27T07:48:02.022Z,1833.00
2023-02-27T07:49:01.955Z,1851.00
2023-02-27T07:50:02.021Z,1870.00
2023-02-27T07:51:02.081Z,1879.00
2023-02-27T07:52:02.118Z,1931.00
2023-02-27T07:53:02.461Z,1945.00
2023-02-27T07:54:02.191Z,1952.00
2023-02-27T07:55:02.284Z,1955.00
2023-02-27T07:56:02.295Z,1946.00
2023-02-27T07:57:02.345Z,1938.00
2023-02-27T07:58:01.456Z,1945.00
2023-02-27T07:59:02.454Z,1961.00
2023-02-27T08:00:02.412Z,2025.00
2023-02-27T08:01:02.446Z,2038.00
2023-02-27T08:02:02.445Z,2050.00
2023-02-27T08:03:02.524Z,2059.00
2023-02-27T08:04:02.530Z,2053.00
2023-02-27T08:05:02.530Z,2053.00
2023-02-27T08:06:02.683Z,2055.00
2023-02-27T08:08:02.512Z,2054.00
2023-02-27T08:09:02.499Z,2068.00
2023-02-27T08:10:02.506Z,2081.00
2023-02-27T08:11:02.510Z,2095.00
2023-02-27T08:12:02.522Z,2103.00
2023-02-27T08:13:01.580Z,2116.00
2023-02-27T08:14:03.301Z,2127.00
2023-02-27T08:15:02.663Z,2163.00
2023-02-27T08:16:02.748Z,2189.00
2023-02-27T08:17:01.740Z,2192.00
2023-02-27T08:18:02.755Z,2202.00
2023-02-27T08:20:02.815Z,2207.00
2023-02-27T08:21:02.860Z,2222.00
2023-02-27T08:22:01.919Z,2225.00
2023-02-27T08:23:02.982Z,2242.00
2023-02-27T08:24:03.035Z,2257.00
2023-02-27T08:25:03.089Z,2261.00
2023-02-27T08:26:03.153Z,2267.00
2023-02-27T08:27:03.218Z,2276.00
2023-02-27T08:28:03.280Z,2285.00
2023-02-27T08:29:03.333Z,2292.00
2023-02-27T08:30:03.395Z,2305.00
2023-02-27T08:31:03.524Z,2301.00
2023-02-27T08:32:02.616Z,2322.00
2023-02-27T08:33:03.586Z,2345.00
2023-02-27T08:34:10.282Z,2361.00
2023-02-27T08:35:03.646Z,2388.00
2023-02-27T08:36:02.766Z,2408.00
2023-02-27T08:37:02.637Z,2411.00
2023-02-27T08:38:02.621Z,2415.00
2023-02-27T08:39:03.617Z,2426.00
2023-02-27T08:40:02.610Z,2434.00
2023-02-27T08:41:02.602Z,2445.00
2023-02-27T08:42:03.636Z,2447.00
2023-02-27T08:43:03.615Z,2455.00
2023-02-27T08:44:03.568Z,2471.00
2023-02-27T08:45:03.573Z,2464.00
2023-02-27T08:46:03.595Z,2462.00
2023-02-27T08:47:03.547Z,2477.00
2023-02-27T08:48:02.979Z,2482.00
2023-02-27T08:49:03.535Z,2482.00
2023-02-27T08:50:03.607Z,2479.00
2023-02-27T08:51:03.527Z,2469.00
2023-02-27T08:52:02.537Z,2452.00
2023-02-27T08:53:03.976Z,2439.00
2023-02-27T08:54:03.496Z,2434.00
2023-02-27T08:55:03.484Z,2435.00
2023-02-27T08:56:02.471Z,2428.00
2023-02-27T08:57:03.468Z,2421.00
2023-02-27T08:58:03.480Z,2418.00
2023-02-27T08:59:03.460Z,2407.00
2023-02-27T09:00:03.599Z,2391.00
2023-02-27T09:01:03.510Z,2383.00
2023-02-27T09:02:03.429Z,2377.00
2023-02-27T09:03:03.482Z,2371.00
2023-02-27T09:04:03.415Z,2363.00
2023-02-27T09:05:02.406Z,2353.00
2023-02-27T09:06:02.405Z,2347.00
2023-02-27T09:07:03.392Z,2342.00
2023-02-27T09:08:03.824Z,2338.00
2023-02-27T09:09:02.389Z,2331.00
2023-02-27T09:10:03.392Z,2323.00
2023-02-27T09:11:03.379Z,2310.00
2023-02-27T09:12:03.371Z,2293.00
2023-02-27T09:13:02.383Z,2285.00
2023-02-27T09:14:03.351Z,2279.00
2023-02-27T09:15:03.346Z,2249.00
2023-02-27T09:16:03.323Z,2259.00
2023-02-27T09:17:03.326Z,2266.00
2023-02-27T09:18:03.488Z,2261.00
2023-02-27T09:19:03.329Z,2241.00
2023-02-27T09:20:03.333Z,2223.00
2023-02-27T09:21:03.373Z,2204.00
2023-02-27T09:22:03.366Z,2189.00
2023-02-27T09:23:03.391Z,2168.00
2023-02-27T09:24:13.746Z,2159.00
2023-02-27T09:25:03.400Z,2149.00
2023-02-27T09:26:02.402Z,2145.00
2023-02-27T09:27:03.383Z,2132.00
2023-02-27T09:28:03.387Z,2122.00
2023-02-27T09:29:03.359Z,2120.00
2023-02-27T09:30:03.393Z,2112.00
2023-02-27T09:31:03.356Z,2109.00
2023-02-27T09:32:02.522Z,2109.00
2023-02-27T09:33:03.490Z,2109.00
2023-02-27T09:34:02.335Z,2098.00
2023-02-27T09:35:03.327Z,2085.00
2023-02-27T09:36:03.473Z,2084.00
2023-02-27T09:37:03.308Z,2071.00
2023-02-27T09:39:03.280Z,2072.00
2023-02-27T09:40:03.300Z,2059.00
2023-02-27T09:41:03.276Z,2048.00
2023-02-27T09:42:03.280Z,2045.00
2023-02-27T09:43:03.548Z,2037.00
2023-02-27T09:44:02.257Z,2028.00
2023-02-27T09:45:05.855Z,2028.00
2023-02-27T09:46:03.452Z,2055.00
2023-02-27T09:47:04.006Z,2082.00
2023-02-27T09:48:03.221Z,2089.00
2023-02-27T09:49:02.209Z,2116.00
2023-02-27T09:50:02.203Z,2150.00
2023-02-27T09:51:03.207Z,2204.00
2023-02-27T09:52:02.183Z,2216.00
2023-02-27T09:53:02.188Z,2215.00
2023-02-27T09:54:03.182Z,2209.00
2023-02-27T09:55:03.178Z,2221.00
2023-02-27T09:56:03.204Z,2300.00
2023-02-27T09:57:03.154Z,2311.00
2023-02-27T09:58:03.499Z,2329.00
2023-02-27T09:59:02.130Z,2357.00
2023-02-27T10:00:02.140Z,2426.00
2023-02-27T10:01:02.121Z,2447.00
2023-02-27T10:02:02.178Z,2468.00
2023-02-27T10:03:02.244Z,2486.00
2023-02-27T10:04:03.225Z,2510.00
2023-02-27T10:05:03.266Z,2532.00
2023-02-27T10:06:02.354Z,2557.00
2023-02-27T10:07:03.401Z,2586.00
2023-02-27T10:08:03.515Z,2613.00
2023-02-27T10:09:03.480Z,2632.00
2023-02-27T10:10:03.514Z,2647.00
2023-02-27T10:11:03.563Z,2655.00
2023-02-27T10:12:04.138Z,2669.00
2023-02-27T10:13:03.654Z,2690.00
2023-02-27T10:14:03.670Z,2710.00
2023-02-27T10:15:02.687Z,2766.00
2023-02-27T10:16:02.730Z,2779.00
2023-02-27T10:17:03.836Z,2792.00
2023-02-27T10:18:13.009Z,2812.00
2023-02-27T10:19:03.784Z,2822.00
2023-02-27T10:20:03.788Z,2850.00
2023-02-27T10:21:03.765Z,2867.00
2023-02-27T10:22:03.766Z,2891.00
2023-02-27T10:23:03.746Z,2900.00
2023-02-27T10:24:05.583Z,2911.00
2023-02-27T10:25:03.754Z,2921.00
2023-02-27T10:26:02.734Z,2944.00
2023-02-27T10:27:03.734Z,2966.00
2023-02-27T10:28:02.764Z,2982.00
2023-02-27T10:29:02.718Z,3003.00
2023-02-27T10:30:03.716Z,3019.00
2023-02-27T10:31:03.780Z,3037.00
2023-02-27T10:32:03.783Z,3049.00
2023-02-27T10:33:02.692Z,3063.00
2023-02-27T10:34:02.719Z,3086.00
2023-02-27T10:35:03.670Z,3101.00
2023-02-27T10:36:03.837Z,3133.00
2023-02-27T10:37:02.657Z,3151.00
2023-02-27T10:38:03.651Z,3160.00
2023-02-27T10:39:02.674Z,3170.00
2023-02-27T10:40:02.691Z,3186.00
2023-02-27T10:41:03.642Z,3202.00
2023-02-27T10:42:03.632Z,3217.00
2023-02-27T10:43:06.111Z,3253.00
2023-02-27T10:44:03.691Z,3274.00
2023-02-27T10:45:03.659Z,3312.00
2023-02-27T10:46:03.665Z,3321.00
2023-02-27T10:47:03.605Z,3329.00
2023-02-27T10:48:03.589Z,3366.00
2023-02-27T10:49:04.039Z,3398.00
2023-02-27T10:50:03.568Z,3364.00
2023-02-27T10:51:03.595Z,3252.00
2023-02-27T10:52:03.575Z,3196.00
2023-02-27T10:53:02.540Z,3193.00
2023-02-27T10:54:03.553Z,3228.00
2023-02-27T10:55:03.558Z,3262.00
2023-02-27T10:56:03.605Z,3301.00
2023-02-27T10:57:03.522Z,3341.00
2023-02-27T10:58:03.511Z,3371.00
2023-02-27T10:59:03.507Z,3383.00
2023-02-27T11:00:02.532Z,3391.00
2023-02-27T11:01:03.479Z,3457.00
2023-02-27T11:02:02.478Z,3466.00
2023-02-27T11:03:03.459Z,3472.00
2023-02-27T11:04:03.453Z,3481.00
2023-02-27T11:05:02.456Z,3502.00
2023-02-27T11:06:03.455Z,3521.00
2023-02-27T11:07:02.424Z,3538.00
2023-02-27T11:08:03.435Z,3559.00
2023-02-27T11:09:03.428Z,3582.00
2023-02-27T11:10:03.418Z,3593.00
2023-02-27T11:11:03.413Z,3631.00
2023-02-27T11:12:03.401Z,3640.00
2023-02-27T11:13:03.393Z,3656.00
2023-02-27T11:14:03.398Z,3661.00
2023-02-27T11:15:03.379Z,3677.00
2023-02-27T11:16:03.578Z,3689.00
2023-02-27T11:17:03.380Z,3725.00
2023-02-27T11:18:02.353Z,3747.00
2023-02-27T11:19:03.347Z,3763.00
2023-02-27T11:20:03.339Z,3775.00
2023-02-27T11:21:03.349Z,3797.00
2023-02-27T11:22:03.325Z,3820.00
2023-02-27T11:23:03.333Z,3839.00
2023-02-27T11:24:03.367Z,3863.00
2023-02-27T11:25:04.298Z,3884.00
2023-02-27T11:26:03.505Z,3911.00
2023-02-27T11:27:03.569Z,3925.00
2023-02-27T11:28:03.635Z,3934.00
2023-02-27T11:29:02.703Z,3946.00
2023-02-27T11:30:03.755Z,3958.00
2023-02-27T11:31:03.895Z,3967.00
2023-02-27T11:32:03.925Z,3987.00
2023-02-27T11:33:02.945Z,4034.00
2023-02-27T11:34:03.020Z,4052.00
2023-02-27T11:35:04.071Z,4085.00
2023-02-27T11:36:04.134Z,4010.00
2023-02-27T11:37:04.092Z,3508.00
2023-02-27T11:38:03.157Z,2739.00
2023-02-27T11:39:04.186Z,2879.00
2023-02-27T11:40:04.215Z,2957.00
2023-02-27T11:41:03.286Z,2769.00
2023-02-27T11:42:04.308Z,2777.00
2023-02-27T11:43:04.374Z,2782.00
2023-02-27T11:44:04.540Z,2755.00
2023-02-27T11:45:04.458Z,2789.00
2023-02-27T11:46:36.689Z,2776.00
2023-02-27T11:47:04.504Z,2726.00
2023-02-27T11:48:03.529Z,2710.00
2023-02-27T11:49:03.469Z,2699.00
2023-02-27T11:50:04.473Z,2670.00
2023-02-27T11:51:04.456Z,2640.00
2023-02-27T11:52:04.453Z,2603.00
2023-02-27T11:53:03.450Z,2532.00
2023-02-27T11:54:03.442Z,2402.00
2023-02-27T11:55:04.425Z,2444.00
2023-02-27T11:56:04.422Z,2440.00
2023-02-27T11:57:03.427Z,2186.00
2023-02-27T11:58:04.414Z,2348.00
2023-02-27T11:59:04.395Z,2334.00
2023-02-27T12:00:04.393Z,2317.00
2023-02-27T12:01:04.378Z,2294.00
2023-02-27T12:02:04.377Z,2256.00
2023-02-27T12:03:04.405Z,2225.00
2023-02-27T12:04:03.446Z,2196.00
2023-02-27T12:05:04.358Z,2185.00
2023-02-27T12:06:04.346Z,2173.00
2023-02-27T12:07:04.344Z,2156.00
2023-02-27T12:08:04.343Z,2130.00
2023-02-27T12:09:04.360Z,2113.00
2023-02-27T12:10:04.338Z,2103.00
2023-02-27T12:11:14.836Z,2092.00
2023-02-27T12:12:04.305Z,2082.00
2023-02-27T12:13:04.311Z,2077.00
2023-02-27T12:14:04.293Z,2078.00
2023-02-27T12:15:04.418Z,2074.00
2023-02-27T12:16:04.382Z,2071.00
2023-02-27T12:17:04.275Z,2070.00
2023-02-27T12:18:03.257Z,2066.00
2023-02-27T12:19:04.276Z,2072.00
2023-02-27T12:20:04.271Z,2074.00
2023-02-27T12:21:04.248Z,2084.00
2023-02-27T12:22:03.231Z,2108.00
2023-02-27T12:23:04.222Z,2121.00
2023-02-27T12:24:04.221Z,2140.00
2023-02-27T12:25:04.209Z,2183.00
2023-02-27T12:26:03.206Z,2199.00
2023-02-27T12:27:04.192Z,2240.00
2023-02-27T12:28:04.181Z,2266.00
2023-02-27T12:29:04.224Z,2289.00
2023-02-27T12:30:04.174Z,2312.00
2023-02-27T12:31:04.166Z,2330.00
2023-02-27T12:32:04.286Z,2349.00
2023-02-27T12:33:04.145Z,2367.00
2023-02-27T12:34:04.154Z,2399.00
2023-02-27T12:35:04.134Z,2480.00
2023-02-27T12:36:04.233Z,2527.00
2023-02-27T12:37:04.138Z,2547.00
2023-02-27T12:38:03.230Z,2555.00